createdAt,value
2022-08-08T00:00:53.361Z,10.90
2022-08-08T00:03:19.811Z,13.93
2022-08-08T00:06:05.656Z,14.57
2022-08-08T00:08:49.730Z,12.27
2022-08-08T00:12:02.976Z,15.55
2022-08-08T00:14:57.221Z,14.15
2022-08-08T00:17:48.261Z,16.80
2022-08-08T00:20:44.331Z,14.15
2022-08-08T00:23:20.393Z,17.30
2022-08-08T00:25:56.156Z,16.80
2022-08-08T00:28:35.916Z,16.50
2022-08-08T00:32:28.550Z,19.20
2022-08-08T00:34:49.726Z,14.57
2022-08-08T00:38:01.350Z,14.90
2022-08-08T00:41:09.292Z,16.90
2022-08-08T00:43:39.947Z,15.88
2022-08-08T00:46:23.222Z,17.30
2022-08-08T00:52:19.925Z,17.38
2022-08-08T00:55:05.647Z,16.23
2022-08-08T00:58:12.727Z,14.93
2022-08-08T01:00:50.565Z,14.65
2022-08-08T01:04:01.156Z,15.93
2022-08-08T01:06:38.661Z,15.88
2022-08-08T01:09:41.359Z,15.80
2022-08-08T01:15:00.477Z,14.93
2022-08-08T01:18:06.525Z,18.58
2022-08-08T01:20:51.683Z,16.15
2022-08-08T01:24:06.264Z,19.70
2022-08-08T01:26:57.764Z,16.52
2022-08-08T01:29:35.446Z,19.27
2022-08-08T01:32:43.081Z,18.00
2022-08-08T01:36:05.181Z,16.85
2022-08-08T01:38:47.706Z,15.18
2022-08-08T01:41:34.491Z,14.75
2022-08-08T01:44:07.833Z,22.70
2022-08-08T01:46:47.299Z,18.70
2022-08-08T01:49:37.754Z,15.35
2022-08-08T01:53:05.094Z,18.02
2022-08-08T01:56:27.524Z,17.30
2022-08-08T01:58:47.021Z,14.82
2022-08-08T02:01:54.697Z,17.08
2022-08-08T02:04:52.193Z,15.27
2022-08-08T02:07:41.796Z,14.32
2022-08-08T02:10:46.553Z,17.63
2022-08-08T02:13:52.534Z,17.55
2022-08-08T02:16:21.537Z,15.95
2022-08-08T02:19:41.608Z,20.10
2022-08-08T02:22:31.422Z,16.75
2022-08-08T02:25:20.085Z,15.55
2022-08-08T02:28:08.770Z,18.98
2022-08-08T02:31:43.625Z,15.57
2022-08-08T02:34:09.172Z,17.10
2022-08-08T02:36:55.492Z,18.27
2022-08-08T02:40:01.563Z,16.70
2022-08-08T02:44:34.603Z,16.95
2022-08-08T02:45:59.028Z,18.40
2022-08-08T02:48:46.127Z,15.20
2022-08-08T02:51:46.789Z,14.15
2022-08-08T02:54:32.059Z,20.00
2022-08-08T02:57:44.674Z,23.48
2022-08-08T03:00:31.291Z,21.92
2022-08-08T03:05:01.115Z,19.92
2022-08-08T03:06:37.074Z,19.20
2022-08-08T03:09:45.127Z,17.60
2022-08-08T03:12:36.241Z,19.45
2022-08-08T03:15:56.234Z,23.38
2022-08-08T03:18:54.365Z,18.55
2022-08-08T03:21:27.026Z,21.25
2022-08-08T03:24:08.234Z,18.45
2022-08-08T03:26:42.696Z,19.52
2022-08-08T03:29:20.575Z,22.10
2022-08-08T03:32:12.313Z,18.88
2022-08-08T03:34:41.221Z,22.02
2022-08-08T03:37:19.947Z,21.70
2022-08-08T03:40:02.353Z,21.92
2022-08-08T03:42:31.595Z,26.02
2022-08-08T03:44:58.840Z,21.17
2022-08-08T03:47:45.322Z,21.08
2022-08-08T03:50:20.226Z,18.05
2022-08-08T03:52:52.628Z,20.27
2022-08-08T03:55:55.712Z,19.92
2022-08-08T03:58:33.654Z,20.88
2022-08-08T04:01:24.541Z,16.70
2022-08-08T04:03:57.024Z,28.20
2022-08-08T04:06:29.597Z,39.70
2022-08-08T04:08:58.346Z,35.42
2022-08-08T04:11:58.061Z,42.78
2022-08-08T04:14:34.410Z,37.90
2022-08-08T04:17:02.634Z,36.13
2022-08-08T04:19:36.779Z,26.60
2022-08-08T04:22:04.449Z,22.40
2022-08-08T04:24:31.790Z,16.75
2022-08-08T04:27:02.656Z,16.92
2022-08-08T04:29:37.366Z,17.73
2022-08-08T04:32:08.283Z,13.80
2022-08-08T04:34:49.503Z,16.58
2022-08-08T04:37:26.261Z,15.95
2022-08-08T04:40:07.087Z,17.75
2022-08-08T04:42:36.954Z,18.70
2022-08-08T04:45:06.398Z,18.83
2022-08-08T04:47:36.559Z,19.60
2022-08-08T04:50:23.588Z,15.60
2022-08-08T04:52:58.711Z,14.30
2022-08-08T04:55:47.857Z,12.13
2022-08-08T04:58:18.111Z,17.10
2022-08-08T05:00:45.189Z,13.27
2022-08-08T05:03:18.521Z,14.27
2022-08-08T05:06:12.764Z,15.63
2022-08-08T05:08:42.295Z,14.02
2022-08-08T05:11:23.826Z,14.18
2022-08-08T05:13:58.024Z,11.38
2022-08-08T05:16:52.754Z,13.00
2022-08-08T05:20:10.852Z,13.47
2022-08-08T05:22:08.584Z,14.23
2022-08-08T05:24:37.647Z,12.25
2022-08-08T05:27:05.923Z,16.20
2022-08-08T05:29:35.722Z,12.00
2022-08-08T05:32:06.538Z,10.48
2022-08-08T05:34:49.534Z,10.75
2022-08-08T05:37:39.528Z,9.90
2022-08-08T05:40:14.831Z,13.98
2022-08-08T05:42:45.388Z,11.50
2022-08-08T05:45:25.428Z,10.27
2022-08-08T05:48:01.527Z,16.05
2022-08-08T05:50:36.371Z,9.80
2022-08-08T05:53:53.963Z,14.85
2022-08-08T05:56:07.724Z,8.93
2022-08-08T05:58:56.852Z,10.60
2022-08-08T06:01:52.450Z,13.70
2022-08-08T06:04:22.509Z,12.63
2022-08-08T06:06:52.866Z,11.43
2022-08-08T06:09:58.857Z,10.75
2022-08-08T06:12:14.272Z,12.25
2022-08-08T06:14:47.658Z,16.00
2022-08-08T06:17:20.940Z,11.75
2022-08-08T06:20:11.637Z,7.65
2022-08-08T06:22:42.095Z,11.90
2022-08-08T06:25:10.380Z,10.00
2022-08-08T06:27:52.652Z,10.20
2022-08-08T06:30:26.279Z,10.60
2022-08-08T06:32:58.434Z,10.50
2022-08-08T06:36:06.514Z,9.45
2022-08-08T06:38:28.740Z,8.98
2022-08-08T06:41:05.569Z,15.73
2022-08-08T06:43:36.506Z,7.95
2022-08-08T06:46:08.899Z,9.40
2022-08-08T06:48:40.019Z,12.35
2022-08-08T06:51:11.181Z,16.55
2022-08-08T06:53:39.461Z,9.10
2022-08-08T06:56:11.537Z,10.40
2022-08-08T06:58:43.428Z,7.28
2022-08-08T07:02:16.849Z,12.73
2022-08-08T07:04:39.932Z,8.60
2022-08-08T07:07:10.435Z,8.98
2022-08-08T07:09:45.706Z,11.25
2022-08-08T07:12:47.785Z,13.30
2022-08-08T07:15:32.668Z,7.85
2022-08-08T07:18:35.900Z,18.15
2022-08-08T07:21:02.031Z,9.02
2022-08-08T07:24:02.803Z,13.77
2022-08-08T07:26:35.454Z,9.98
2022-08-08T07:29:05.825Z,11.45
2022-08-08T07:31:36.715Z,13.20
2022-08-08T07:34:09.053Z,10.65
2022-08-08T07:36:48.343Z,7.53
2022-08-08T07:39:29.325Z,9.93
2022-08-08T07:42:04.411Z,8.80
2022-08-08T07:44:38.439Z,13.93
2022-08-08T07:47:08.782Z,9.80
2022-08-08T07:49:40.119Z,7.68
2022-08-08T07:52:13.140Z,7.80
2022-08-08T07:55:06.435Z,7.60
2022-08-08T07:57:48.710Z,7.95
2022-08-08T08:00:17.255Z,7.95
2022-08-08T08:03:04.156Z,7.57
2022-08-08T08:05:37.960Z,11.40
2022-08-08T08:08:15.651Z,13.40
2022-08-08T08:10:48.234Z,13.88
2022-08-08T08:14:08.230Z,7.90
2022-08-08T08:16:39.764Z,10.23
2022-08-08T08:19:12.849Z,9.20
2022-08-08T08:21:57.369Z,11.13
2022-08-08T08:24:30.307Z,9.82
2022-08-08T08:26:58.760Z,8.63
2022-08-08T08:29:27.732Z,10.18
2022-08-08T08:31:57.627Z,9.52
2022-08-08T08:34:31.730Z,9.05
2022-08-08T08:36:58.925Z,8.13
2022-08-08T08:39:59.704Z,8.55
2022-08-08T08:42:14.053Z,8.00
2022-08-08T08:44:47.407Z,7.55
2022-08-08T08:47:18.842Z,8.23
2022-08-08T08:49:48.783Z,9.00
2022-08-08T08:52:20.658Z,11.20
2022-08-08T08:54:49.496Z,6.75
2022-08-08T08:57:23.679Z,11.00
2022-08-08T09:00:00.033Z,6.63
2022-08-08T09:02:35.755Z,7.22
2022-08-08T09:05:09.196Z,6.25
2022-08-08T09:08:12.461Z,7.80
2022-08-08T09:10:48.122Z,12.60
2022-08-08T09:13:18.706Z,4.82
2022-08-08T09:16:02.818Z,9.77
2022-08-08T09:18:31.196Z,5.25
2022-08-08T09:21:56.280Z,9.30
2022-08-08T09:23:47.748Z,8.27
2022-08-08T09:26:49.721Z,5.38
2022-08-08T09:29:24.671Z,4.68
2022-08-08T09:32:03.779Z,4.78
2022-08-08T09:34:38.996Z,5.05
2022-08-08T09:40:10.831Z,5.65
2022-08-08T09:42:51.574Z,6.60
2022-08-08T09:46:02.069Z,4.38
2022-08-08T09:48:36.471Z,5.78
2022-08-08T09:51:09.789Z,5.22
2022-08-08T09:54:01.270Z,11.65
2022-08-08T09:56:41.371Z,7.57
2022-08-08T09:59:53.298Z,7.88
2022-08-08T10:02:12.959Z,8.77
2022-08-08T10:04:47.274Z,3.38
2022-08-08T10:07:16.996Z,5.05
2022-08-08T10:09:59.444Z,6.03
2022-08-08T10:12:54.161Z,8.30
2022-08-08T10:15:26.783Z,7.05
2022-08-08T10:18:06.025Z,7.70
2022-08-08T10:21:08.318Z,4.13
2022-08-08T10:23:58.643Z,8.70
2022-08-08T10:26:58.643Z,8.98
2022-08-08T10:29:38.378Z,5.13
2022-08-08T10:32:38.121Z,2.40
2022-08-08T10:36:06.659Z,5.65
2022-08-08T10:38:08.057Z,3.08
2022-08-08T10:40:38.500Z,6.68
2022-08-08T10:43:07.148Z,3.75
2022-08-08T10:45:55.819Z,4.80
2022-08-08T10:48:57.513Z,5.95
2022-08-08T10:51:31.686Z,5.57
2022-08-08T10:54:08.121Z,8.48
2022-08-08T10:56:43.067Z,6.18
2022-08-08T10:59:14.629Z,4.53
2022-08-08T11:01:54.425Z,5.47
2022-08-08T11:04:38.658Z,5.80
2022-08-08T11:07:07.225Z,4.47
2022-08-08T11:09:35.246Z,10.07
2022-08-08T11:12:13.140Z,5.10
2022-08-08T11:14:58.438Z,5.53
2022-08-08T11:18:00.688Z,3.28
2022-08-08T11:20:29.068Z,4.38
2022-08-08T11:22:58.987Z,4.68
2022-08-08T11:25:52.962Z,8.18
2022-08-08T11:28:18.908Z,3.75
2022-08-08T11:30:50.614Z,5.20
2022-08-08T11:33:23.419Z,6.00
2022-08-08T11:36:10.503Z,4.38
2022-08-08T11:38:54.297Z,8.05
2022-08-08T11:41:27.884Z,4.57
2022-08-08T11:43:58.685Z,9.45
2022-08-08T11:46:30.620Z,22.40
2022-08-08T11:49:00.370Z,3.72
2022-08-08T11:51:29.947Z,2.67
2022-08-08T11:54:27.065Z,6.75
2022-08-08T11:56:57.779Z,4.18
2022-08-08T11:59:58.265Z,6.93
2022-08-08T12:02:32.603Z,4.60
2022-08-08T12:05:03.630Z,2.67
2022-08-08T12:07:31.917Z,6.05
2022-08-08T12:10:11.151Z,4.50
2022-08-08T12:12:45.803Z,12.35
2022-08-08T12:15:27.131Z,3.38
2022-08-08T12:17:55.318Z,3.88
2022-08-08T12:20:23.169Z,6.07
2022-08-08T12:22:54.000Z,2.80
2022-08-08T12:25:31.036Z,8.73
2022-08-08T12:28:15.574Z,4.70
2022-08-08T12:30:48.001Z,4.13
2022-08-08T12:33:24.606Z,4.75
2022-08-08T12:36:16.284Z,3.00
2022-08-08T12:38:55.283Z,9.05
2022-08-08T12:41:35.438Z,3.88
2022-08-08T12:44:13.514Z,7.75
2022-08-08T12:47:01.175Z,4.25
2022-08-08T12:49:42.995Z,4.68
2022-08-08T12:52:28.332Z,7.13
2022-08-08T12:55:14.456Z,3.30
2022-08-08T12:58:09.588Z,5.18
2022-08-08T13:00:42.954Z,5.70
2022-08-08T13:03:10.749Z,4.57
2022-08-08T13:06:03.613Z,5.25
2022-08-08T13:08:41.459Z,2.25
2022-08-08T13:11:23.472Z,4.43
2022-08-08T13:13:52.498Z,5.20
2022-08-08T13:16:26.006Z,9.13
2022-08-08T13:19:00.374Z,6.40
2022-08-08T13:21:36.415Z,6.70
2022-08-08T13:24:18.559Z,4.63
2022-08-08T13:27:11.754Z,4.45
2022-08-08T13:30:00.311Z,2.83
2022-08-08T13:32:30.307Z,8.25
2022-08-08T13:34:59.426Z,6.32
2022-08-08T13:37:27.908Z,4.88
2022-08-08T13:40:17.998Z,6.47
2022-08-08T13:42:54.205Z,3.35
2022-08-08T13:45:22.945Z,6.88
2022-08-08T13:48:01.930Z,7.13
2022-08-08T13:50:48.019Z,7.07
2022-08-08T13:53:34.118Z,4.13
2022-08-08T13:56:11.544Z,7.22
2022-08-08T13:58:56.264Z,6.72
2022-08-08T14:01:32.799Z,2.80
2022-08-08T14:04:23.077Z,4.55
2022-08-08T14:06:58.881Z,10.27
2022-08-08T14:10:05.126Z,4.20
2022-08-08T14:12:26.492Z,4.07
2022-08-08T14:14:55.102Z,2.53
2022-08-08T14:17:58.038Z,4.60
2022-08-08T14:20:14.832Z,6.53
2022-08-08T14:23:10.229Z,4.47
2022-08-08T14:25:56.633Z,7.38
2022-08-08T14:28:29.093Z,3.95
2022-08-08T14:31:07.733Z,4.63
2022-08-08T14:33:40.016Z,3.47
2022-08-08T14:36:11.481Z,4.30
2022-08-08T14:38:52.465Z,4.95
2022-08-08T14:41:54.107Z,5.88
2022-08-08T14:44:21.181Z,7.75
2022-08-08T14:46:58.607Z,7.57
2022-08-08T14:49:51.820Z,3.08
2022-08-08T14:52:21.786Z,10.75
2022-08-08T14:54:50.053Z,5.32
2022-08-08T14:57:17.045Z,4.43
2022-08-08T14:59:51.227Z,9.40
2022-08-08T15:02:25.507Z,2.28
2022-08-08T15:04:57.354Z,3.85
2022-08-08T15:07:40.164Z,3.03
2022-08-08T15:10:09.905Z,4.72
2022-08-08T15:12:37.427Z,11.88
2022-08-08T15:15:09.154Z,4.43
2022-08-08T15:17:37.902Z,6.18
2022-08-08T15:20:12.506Z,2.72
2022-08-08T15:22:44.683Z,3.83
2022-08-08T15:25:17.745Z,2.80
2022-08-08T15:28:03.873Z,5.40
2022-08-08T15:30:45.829Z,5.60
2022-08-08T15:33:35.721Z,9.75
2022-08-08T15:36:02.191Z,7.88
2022-08-08T15:38:29.481Z,5.13
2022-08-08T15:40:57.141Z,7.30
2022-08-08T15:43:34.851Z,3.38
2022-08-08T15:46:02.980Z,12.57
2022-08-08T15:48:30.995Z,5.10
2022-08-08T15:51:06.248Z,7.28
2022-08-08T15:53:49.181Z,3.13
2022-08-08T15:56:19.918Z,5.50
2022-08-08T15:58:48.575Z,4.28
2022-08-08T16:01:16.647Z,3.40
2022-08-08T16:03:46.126Z,4.63
2022-08-08T16:06:28.563Z,2.63
2022-08-08T16:13:01.954Z,3.33
2022-08-08T16:13:03.455Z,5.05
2022-08-08T16:14:35.258Z,3.53
2022-08-08T16:17:02.817Z,5.15
2022-08-08T16:19:57.105Z,6.97
2022-08-08T16:22:29.900Z,2.80
2022-08-08T16:24:58.200Z,7.95
2022-08-08T16:27:25.469Z,12.60
2022-08-08T16:30:13.667Z,4.40
2022-08-08T16:32:42.309Z,4.82
2022-08-08T16:35:09.683Z,4.53
2022-08-08T16:37:40.384Z,3.40
2022-08-08T16:40:12.224Z,2.78
2022-08-08T16:42:40.470Z,6.05
2022-08-08T16:45:11.489Z,7.65
2022-08-08T16:47:54.966Z,7.22
2022-08-08T16:50:21.965Z,4.97
2022-08-08T16:55:00.056Z,3.80
2022-08-08T16:55:56.019Z,2.60
2022-08-08T16:58:26.445Z,7.20
2022-08-08T17:00:55.360Z,6.25
2022-08-08T17:03:47.501Z,3.03
2022-08-08T17:06:37.666Z,7.40
2022-08-08T17:08:59.159Z,6.78
2022-08-08T17:11:27.926Z,6.03
2022-08-08T17:14:01.706Z,8.02
2022-08-08T17:16:29.472Z,7.28
2022-08-08T17:18:58.472Z,6.30
2022-08-08T17:21:36.689Z,6.03
2022-08-08T17:24:21.975Z,14.25
2022-08-08T17:26:58.062Z,11.05
2022-08-08T17:29:26.404Z,10.50
2022-08-08T17:31:53.433Z,8.18
2022-08-08T17:34:48.295Z,12.50
2022-08-08T17:37:09.225Z,6.53
2022-08-08T17:40:04.826Z,14.60
2022-08-08T17:42:26.447Z,8.57
2022-08-08T17:44:53.991Z,9.95
2022-08-08T17:47:23.797Z,5.20
2022-08-08T17:49:53.010Z,7.28
2022-08-08T17:52:28.177Z,7.07
2022-08-08T17:54:56.023Z,9.77
2022-08-08T17:57:24.181Z,9.88
2022-08-08T17:59:58.534Z,9.00
2022-08-08T18:02:29.992Z,9.35
2022-08-08T18:04:58.774Z,3.30
2022-08-08T18:08:04.011Z,6.93
2022-08-08T18:10:15.489Z,8.93
2022-08-08T18:12:44.444Z,10.35
2022-08-08T18:15:13.305Z,9.15
2022-08-08T18:18:09.599Z,3.90
2022-08-08T18:20:36.884Z,5.03
2022-08-08T18:23:17.255Z,9.10
2022-08-08T18:25:46.535Z,9.32
2022-08-08T18:28:14.382Z,8.93
2022-08-08T18:30:42.972Z,7.25
2022-08-08T18:33:36.575Z,3.25
2022-08-08T18:36:03.202Z,4.80
2022-08-08T18:38:32.348Z,3.70
2022-08-08T18:41:03.083Z,7.13
2022-08-08T18:43:38.077Z,4.70
2022-08-08T18:46:56.497Z,8.10
2022-08-08T18:49:00.894Z,12.98
2022-08-08T18:51:52.511Z,9.70
2022-08-08T18:54:22.460Z,10.75
2022-08-08T18:56:55.331Z,5.70
2022-08-08T18:59:23.232Z,10.75
2022-08-08T19:02:26.692Z,8.68
2022-08-08T19:04:37.341Z,5.68
2022-08-08T19:07:04.587Z,11.15
2022-08-08T19:09:48.477Z,10.68
2022-08-08T19:12:26.535Z,7.15
2022-08-08T19:14:53.534Z,8.32
2022-08-08T19:17:29.457Z,4.15
2022-08-08T19:20:11.143Z,6.00
2022-08-08T21:05:49.142Z,12.57
2022-08-08T21:08:36.262Z,14.63
2022-08-08T21:11:11.680Z,8.20
2022-08-08T21:13:45.556Z,7.07
2022-08-08T21:16:20.692Z,12.98
2022-08-08T21:18:57.487Z,8.30
2022-08-08T21:21:40.213Z,12.90
2022-08-08T21:24:23.973Z,8.55
2022-08-08T21:26:54.025Z,12.32
2022-08-08T21:29:21.668Z,8.27
2022-08-08T21:32:14.181Z,11.35
2022-08-08T21:34:51.767Z,17.70
2022-08-08T21:37:23.568Z,6.43
2022-08-08T21:40:11.427Z,9.77
2022-08-08T21:42:39.414Z,15.27
2022-08-08T21:45:44.145Z,10.95
2022-08-08T21:48:00.888Z,13.43
2022-08-08T21:50:35.642Z,7.80
2022-08-08T21:54:34.544Z,8.75
2022-08-08T21:56:26.538Z,11.32
2022-08-08T21:58:37.406Z,16.35
2022-08-08T22:01:05.191Z,9.55
2022-08-08T22:03:50.394Z,6.25
2022-08-08T22:06:28.766Z,7.30
2022-08-08T22:08:59.399Z,6.60
2022-08-08T22:11:59.409Z,6.93
2022-08-08T22:14:16.719Z,6.43
2022-08-08T22:16:44.348Z,7.20
2022-08-08T22:19:16.432Z,4.60
2022-08-08T22:21:43.172Z,5.85
2022-08-08T22:24:12.121Z,10.38
2022-08-08T22:27:01.155Z,4.90
2022-08-08T22:30:01.425Z,9.77
2022-08-08T22:32:12.171Z,6.72
2022-08-08T22:34:39.318Z,5.28
2022-08-08T22:37:07.124Z,8.68
2022-08-08T22:40:00.947Z,8.13
2022-08-08T22:42:31.893Z,10.50
2022-08-08T22:45:05.423Z,6.00
2022-08-08T22:47:41.207Z,10.77
2022-08-08T22:50:27.009Z,5.10
2022-08-08T22:54:32.564Z,13.48
2022-08-08T22:55:58.065Z,10.30
2022-08-08T22:58:33.989Z,10.32
2022-08-08T23:02:02.130Z,9.60
2022-08-08T23:03:53.749Z,9.07
2022-08-08T23:08:55.463Z,7.63
2022-08-08T23:11:30.808Z,7.35
2022-08-08T23:14:11.603Z,8.02
2022-08-08T23:16:43.958Z,8.50
2022-08-08T23:19:15.365Z,8.80
2022-08-08T23:21:42.390Z,8.38
2022-08-08T23:24:09.334Z,9.23
2022-08-08T23:26:36.122Z,9.55
2022-08-08T23:29:04.508Z,14.32
2022-08-08T23:31:38.787Z,9.05
2022-08-08T23:34:16.585Z,7.93
2022-08-08T23:36:45.639Z,8.70
2022-08-08T23:39:12.766Z,7.80
2022-08-08T23:41:41.605Z,8.73
2022-08-08T23:44:14.653Z,11.93
2022-08-08T23:49:06.332Z,9.05
2022-08-08T23:49:28.544Z,10.70
2022-08-08T23:52:04.486Z,11.95
2022-08-08T23:54:41.471Z,8.70
2022-08-08T23:57:25.594Z,6.88
